Portada
METAR-TAF:

METAR-TAF

Aeroports :

Munda, New Georgia, Illes Salomó

latitud: 8-19-41S, longitud: 157-15-47E, altitud: 3 m

Observació

L'informe es va fer fa 2 hores i 25 minuts, a les 21:00 UTC
Vent calma
Temperatura 27°C
Humitat 89%
Pressió 1008 hPa
Visibilitat 10 km o més
Escasses núvols a una alçada de 1600 ft

METAR: AGGM 262100Z 00000KT 9999 FEW016 27/25 Q1008

Hora: 10:25 (23:25 UTC)

Pronòstic

L'informe es va fer fa 6 hores i 15 minuts, a les 17:10 UTC
Pronòstic vàlid del 26 a les 18 UTC al 27 a les 18 UTC
Vent 8 kt del Est/Sud-Est
Visibilitat: 1007 m
Núvols disperses a una alçada de 1800 ft

TAF: AGGM 261710Z 2618/2718 11008KT 9999 SCT018 Q 1007 1009 1009 1007

Observacions i pronòstics meteorològics de més de 4000 aeroports (METAR i TAF).

Les estacions disponibles són els punts grocs i vermells al mapa.

Posi el ratolí al punt desitjat per veure el nom de l'estació.

Feu clic per veure les observacions i els pronòstics meteorològics.

Per canviar el mapa: feu clic els botons verds amb una creu de color negre per apropar; al botó verd amb un guió per allunyar la imatge; o en les fletxes verdes per a mapes adjacents.


METAR-TAF: